TimeCST,TemperatureF,Dew PointF,Humidity,Sea Level PressureIn,VisibilityMPH,Wind Direction,Wind SpeedMPH,Gust SpeedMPH,PrecipitationIn,Events,Conditions,WindDirDegrees,DateUTC
12:15 AM,16.9,12.7,84,30.23,10.0,West,8.1,-,N/A,,Overcast,270,2013-01-14 06:15:00
12:35 AM,16.9,12.6,83,30.24,10.0,West,11.5,-,N/A,,Overcast,280,2013-01-14 06:35:00
12:55 AM,16.5,12.2,83,30.24,10.0,WNW,10.4,-,N/A,,Overcast,290,2013-01-14 06:55:00
1:15 AM,16.7,12.6,84,30.26,7.0,West,8.1,-,N/A,,Overcast,280,2013-01-14 07:15:00
1:35 AM,16.5,12.6,84,30.28,7.0,West,11.5,-,N/A,,Overcast,260,2013-01-14 07:35:00
1:55 AM,16.0,11.5,82,30.29,10.0,West,9.2,-,N/A,,Overcast,260,2013-01-14 07:55:00
2:15 AM,15.4,10.2,80,30.31,10.0,West,10.4,-,N/A,,Scattered Clouds,270,2013-01-14 08:15:00
2:55 AM,14.9,9.9,80,30.32,10.0,West,8.1,-,N/A,,Scattered Clouds,270,2013-01-14 08:55:00
3:15 AM,14.9,10.2,82,30.33,10.0,West,8.1,-,N/A,,Clear,270,2013-01-14 09:15:00
3:35 AM,14.7,10.0,82,30.33,10.0,West,10.4,-,N/A,,Clear,270,2013-01-14 09:35:00
3:55 AM,14.5,10.2,83,30.34,10.0,West,9.2,-,N/A,,Clear,270,2013-01-14 09:55:00
4:15 AM,14.2,9.7,82,30.34,10.0,West,10.4,-,N/A,,Clear,280,2013-01-14 10:15:00
4:35 AM,14.0,9.5,82,30.34,10.0,WNW,9.2,-,N/A,,Clear,290,2013-01-14 10:35:00
4:55 AM,13.8,9.7,84,30.34,10.0,WNW,8.1,-,N/A,,Clear,290,2013-01-14 10:55:00
5:15 AM,13.6,9.3,83,30.34,10.0,WNW,10.4,-,N/A,,Clear,300,2013-01-14 11:15:00
5:35 AM,13.6,9.1,82,30.35,10.0,WNW,8.1,-,N/A,,Clear,290,2013-01-14 11:35:00
6:15 AM,13.3,9.1,84,30.38,10.0,WNW,8.1,-,N/A,,Clear,290,2013-01-14 12:15:00
6:35 AM,13.3,9.0,83,30.39,10.0,West,6.9,-,N/A,,Clear,280,2013-01-14 12:35:00
6:55 AM,13.1,9.1,84,30.40,10.0,WNW,8.1,-,N/A,,Mostly Cloudy,290,2013-01-14 12:55:00
7:15 AM,13.1,9.1,84,30.39,10.0,WNW,8.1,-,N/A,,Scattered Clouds,300,2013-01-14 13:15:00
7:35 AM,13.1,9.1,84,30.40,7.0,WNW,5.8,-,N/A,,Scattered Clouds,290,2013-01-14 13:35:00
7:55 AM,13.3,9.3,84,30.41,10.0,West,4.6,-,N/A,,Overcast,280,2013-01-14 13:55:00
8:15 AM,13.8,9.7,84,30.42,10.0,West,5.8,-,N/A,,Overcast,280,2013-01-14 14:15:00
8:35 AM,14.0,10.0,84,30.42,5.0,West,4.6,-,N/A,,Overcast,280,2013-01-14 14:35:00
8:55 AM,14.7,10.6,84,30.41,5.0,West,4.6,-,N/A,,Overcast,280,2013-01-14 14:55:00
9:15 AM,15.4,11.3,84,30.41,5.0,WNW,3.5,-,N/A,,Overcast,300,2013-01-14 15:15:00
9:35 AM,16.2,12.4,85,30.40,3.0,NW,4.6,-,N/A,,Overcast,310,2013-01-14 15:35:00
9:55 AM,17.2,13.6,86,30.39,1.5,NW,3.5,-,N/A,,Overcast,310,2013-01-14 15:55:00
10:15 AM,17.8,14.2,86,30.40,1.8,Calm,Calm,-,N/A,,Overcast,0,2013-01-14 16:15:00
10:35 AM,18.3,14.9,86,30.39,2.5,Calm,Calm,-,N/A,,Overcast,0,2013-01-14 16:35:00
10:55 AM,18.7,15.3,87,30.39,2.5,Calm,Calm,-,N/A,,Overcast,0,2013-01-14 16:55:00
11:15 AM,19.6,16.2,87,30.40,5.0,Calm,Calm,-,N/A,,Overcast,0,2013-01-14 17:15:00
11:55 AM,21.4,16.7,82,30.40,10.0,North,3.5,-,N/A,,Overcast,10,2013-01-14 17:55:00
12:15 PM,21.4,16.5,82,30.40,10.0,Calm,Calm,-,N/A,,Overcast,0,2013-01-14 18:15:00
12:35 PM,21.9,16.9,81,30.40,10.0,WNW,5.8,-,N/A,,Overcast,300,2013-01-14 18:35:00
1:15 PM,22.3,16.2,77,30.40,5.0,NW,3.5,-,N/A,,Overcast,310,2013-01-14 19:15:00
1:35 PM,22.6,16.9,79,30.41,10.0,Calm,Calm,-,N/A,,Overcast,0,2013-01-14 19:35:00
1:55 PM,22.6,17.4,80,30.41,4.0,Calm,Calm,-,N/A,,Overcast,0,2013-01-14 19:55:00
2:15 PM,22.6,17.1,79,30.42,7.0,WNW,3.5,-,N/A,,Overcast,290,2013-01-14 20:15:00
2:35 PM,22.8,17.2,79,30.43,7.0,WNW,3.5,-,N/A,,Overcast,300,2013-01-14 20:35:00
2:55 PM,23.0,17.2,79,30.42,10.0,NW,3.5,-,N/A,,Overcast,320,2013-01-14 20:55:00
3:15 PM,23.0,17.2,79,30.44,10.0,West,3.5,-,N/A,,Overcast,270,2013-01-14 21:15:00
3:35 PM,23.4,17.1,77,30.45,10.0,West,3.5,-,N/A,,Overcast,260,2013-01-14 21:35:00
3:55 PM,23.4,17.2,77,30.45,7.0,Calm,Calm,-,N/A,,Overcast,0,2013-01-14 21:55:00
4:35 PM,23.4,16.5,75,30.44,10.0,Calm,Calm,-,N/A,,Overcast,0,2013-01-14 22:35:00
4:55 PM,23.0,15.3,72,30.44,10.0,Calm,Calm,-,N/A,,Overcast,0,2013-01-14 22:55:00
5:15 PM,23.0,15.1,72,30.43,10.0,Calm,Calm,-,N/A,,Overcast,0,2013-01-14 23:15:00
5:35 PM,23.0,15.1,72,30.43,10.0,Calm,Calm,-,N/A,,Overcast,0,2013-01-14 23:35:00
5:55 PM,22.6,15.6,74,30.42,10.0,SE,3.5,-,N/A,,Overcast,130,2013-01-14 23:55:00
6:15 PM,22.1,17.6,83,30.42,10.0,SSW,3.5,-,N/A,,Overcast,210,2013-01-15 00:15:00
6:35 PM,21.2,17.6,86,30.42,10.0,SSW,4.6,-,N/A,,Overcast,210,2013-01-15 00:35:00
6:55 PM,20.7,17.6,88,30.42,10.0,WSW,3.5,-,N/A,,Scattered Clouds,250,2013-01-15 00:55:00
7:15 PM,19.9,17.2,89,30.42,10.0,SW,4.6,-,N/A,,Clear,230,2013-01-15 01:15:00
7:35 PM,19.4,17.2,91,30.42,10.0,SW,3.5,-,N/A,,Clear,230,2013-01-15 01:35:00
7:55 PM,19.0,16.9,91,30.40,10.0,Calm,Calm,-,N/A,,Clear,0,2013-01-15 01:55:00
8:15 PM,18.3,16.7,93,30.41,10.0,West,4.6,-,N/A,,Clear,280,2013-01-15 02:15:00
8:35 PM,18.9,16.7,91,30.40,10.0,West,4.6,-,N/A,,Clear,280,2013-01-15 02:35:00
8:55 PM,18.9,16.5,91,30.40,10.0,West,4.6,-,N/A,,Clear,280,2013-01-15 02:55:00
9:15 PM,18.5,16.5,92,30.40,10.0,West,4.6,-,N/A,,Clear,280,2013-01-15 03:15:00
9:35 PM,18.5,16.3,91,30.39,10.0,WNW,4.6,-,N/A,,Clear,290,2013-01-15 03:35:00
9:55 PM,18.3,16.0,91,30.40,10.0,WNW,3.5,-,N/A,,Clear,300,2013-01-15 03:55:00
10:15 PM,18.1,15.8,91,30.39,10.0,WNW,4.6,-,N/A,,Clear,300,2013-01-15 04:15:00
10:35 PM,17.6,15.3,91,30.40,10.0,NW,3.5,-,N/A,,Clear,310,2013-01-15 04:35:00
10:55 PM,17.1,14.9,91,30.40,10.0,NW,3.5,-,N/A,,Clear,320,2013-01-15 04:55:00
11:15 PM,16.9,14.9,92,30.40,10.0,Calm,Calm,-,N/A,,Clear,0,2013-01-15 05:15:00
11:35 PM,16.5,14.4,91,30.40,10.0,Calm,Calm,-,N/A,,Clear,0,2013-01-15 05:35:00
11:55 PM,14.9,13.3,93,30.41,7.0,Calm,Calm,-,N/A,,Clear,0,2013-01-15 05:55:00